Thaxton, Mississippi
Current Conditions -  °F | °C
As of 4:35 AM on Saturday 22 Nov 2014 (Local Time) from KUOX Reporting Station
Clear Clear  
Wind Chill: 45°   Ceiling: Unl
Heat Index: 48°   Visibility: 10mi
Dew Point: 43°   Wind: 8mph
Humidity: 82%   Direction: 140°SE
Pressure: 30.31"   Gusts: NA
Location:  34.31°N, 89.18°W
Report Text: KUOX 221035Z AUTO 14007KT 10SM CLR 09/06 A3031 RMK AO2 PWINO PNO
Loading
Personal Weather Stations






























Interactive Weather Map New forecast layout! Learn more

10-Day Weather Forecast

Advertisements
Track Severe Weather on mobile